sensor_id;sensor_type;location;lat;lon;timestamp;temperature;humidity
70079;DHT22;57451;52.496;13.456;2023-04-03T00:01:58;1.70;63.50
70079;DHT22;57451;52.496;13.456;2023-04-03T00:04:25;1.60;63.60
70079;DHT22;57451;52.496;13.456;2023-04-03T00:06:52;1.70;63.30
70079;DHT22;57451;52.496;13.456;2023-04-03T00:09:21;1.70;63.50
70079;DHT22;57451;52.496;13.456;2023-04-03T00:11:48;1.70;63.40
70079;DHT22;57451;52.496;13.456;2023-04-03T00:14:16;1.70;63.20
70079;DHT22;57451;52.496;13.456;2023-04-03T00:16:43;1.60;63.60
70079;DHT22;57451;52.496;13.456;2023-04-03T00:19:10;1.60;63.60
70079;DHT22;57451;52.496;13.456;2023-04-03T00:21:38;1.60;63.30
70079;DHT22;57451;52.496;13.456;2023-04-03T00:24:07;1.60;63.30
70079;DHT22;57451;52.496;13.456;2023-04-03T00:26:35;1.60;63.20
70079;DHT22;57451;52.496;13.456;2023-04-03T00:29:02;1.60;63.10
70079;DHT22;57451;52.496;13.456;2023-04-03T00:31:30;1.60;63.00
70079;DHT22;57451;52.496;13.456;2023-04-03T00:33:58;1.60;62.90
70079;DHT22;57451;52.496;13.456;2023-04-03T00:36:25;1.60;63.00
70079;DHT22;57451;52.496;13.456;2023-04-03T00:38:53;1.60;63.00
70079;DHT22;57451;52.496;13.456;2023-04-03T00:41:21;1.50;63.10
70079;DHT22;57451;52.496;13.456;2023-04-03T00:43:49;1.60;62.90
70079;DHT22;57451;52.496;13.456;2023-04-03T00:46:17;1.60;62.70
70079;DHT22;57451;52.496;13.456;2023-04-03T00:48:45;1.60;62.60
70079;DHT22;57451;52.496;13.456;2023-04-03T00:51:15;1.60;62.40
70079;DHT22;57451;52.496;13.456;2023-04-03T00:53:46;1.60;62.40
70079;DHT22;57451;52.496;13.456;2023-04-03T00:56:17;1.60;62.50
70079;DHT22;57451;52.496;13.456;2023-04-03T00:58:47;1.60;62.50
70079;DHT22;57451;52.496;13.456;2023-04-03T01:01:21;1.60;62.50
70079;DHT22;57451;52.496;13.456;2023-04-03T01:03:50;1.60;62.50
70079;DHT22;57451;52.496;13.456;2023-04-03T01:06:23;1.60;62.30
70079;DHT22;57451;52.496;13.456;2023-04-03T01:08:52;1.60;62.30
70079;DHT22;57451;52.496;13.456;2023-04-03T01:11:19;1.50;62.40
70079;DHT22;57451;52.496;13.456;2023-04-03T01:13:48;1.50;62.50
70079;DHT22;57451;52.496;13.456;2023-04-03T01:16:17;1.50;62.30
70079;DHT22;57451;52.496;13.456;2023-04-03T01:18:46;1.50;62.60
70079;DHT22;57451;52.496;13.456;2023-04-03T01:21:30;1.50;62.40
70079;DHT22;57451;52.496;13.456;2023-04-03T01:24:22;1.50;62.70
70079;DHT22;57451;52.496;13.456;2023-04-03T01:26:52;1.50;62.60
70079;DHT22;57451;52.496;13.456;2023-04-03T01:29:19;1.50;62.80
70079;DHT22;57451;52.496;13.456;2023-04-03T01:31:50;1.40;62.80
70079;DHT22;57451;52.496;13.456;2023-04-03T01:34:19;1.30;63.10
70079;DHT22;57451;52.496;13.456;2023-04-03T01:36:46;1.40;63.20
70079;DHT22;57451;52.496;13.456;2023-04-03T01:39:14;1.30;63.20
70079;DHT22;57451;52.496;13.456;2023-04-03T01:41:41;1.30;63.00
70079;DHT22;57451;52.496;13.456;2023-04-03T01:44:14;1.30;63.10
70079;DHT22;57451;52.496;13.456;2023-04-03T01:46:41;1.30;63.10
70079;DHT22;57451;52.496;13.456;2023-04-03T01:49:10;1.30;63.10
70079;DHT22;57451;52.496;13.456;2023-04-03T01:51:38;1.30;63.20
70079;DHT22;57451;52.496;13.456;2023-04-03T01:54:05;1.30;63.20
70079;DHT22;57451;52.496;13.456;2023-04-03T01:56:32;1.30;63.20
70079;DHT22;57451;52.496;13.456;2023-04-03T01:58:59;1.30;63.40
70079;DHT22;57451;52.496;13.456;2023-04-03T02:01:27;1.30;63.20
70079;DHT22;57451;52.496;13.456;2023-04-03T02:03:54;1.30;63.20
70079;DHT22;57451;52.496;13.456;2023-04-03T02:06:23;1.30;63.30
70079;DHT22;57451;52.496;13.456;2023-04-03T02:08:50;1.30;63.00
70079;DHT22;57451;52.496;13.456;2023-04-03T02:11:18;1.30;63.20
70079;DHT22;57451;52.496;13.456;2023-04-03T02:13:45;1.20;63.60
70079;DHT22;57451;52.496;13.456;2023-04-03T02:16:13;1.20;63.70
70079;DHT22;57451;52.496;13.456;2023-04-03T02:18:41;1.20;63.60
70079;DHT22;57451;52.496;13.456;2023-04-03T02:21:08;1.20;63.40
70079;DHT22;57451;52.496;13.456;2023-04-03T02:23:37;1.20;63.70
70079;DHT22;57451;52.496;13.456;2023-04-03T02:26:09;1.20;63.70
70079;DHT22;57451;52.496;13.456;2023-04-03T02:28:38;1.20;63.70
70079;DHT22;57451;52.496;13.456;2023-04-03T02:31:05;1.20;63.70
70079;DHT22;57451;52.496;13.456;2023-04-03T02:33:36;1.20;63.80
70079;DHT22;57451;52.496;13.456;2023-04-03T02:36:07;1.20;63.80
70079;DHT22;57451;52.496;13.456;2023-04-03T02:38:38;1.10;63.90
70079;DHT22;57451;52.496;13.456;2023-04-03T02:41:07;1.10;64.00
70079;DHT22;57451;52.496;13.456;2023-04-03T02:43:35;1.10;64.10
70079;DHT22;57451;52.496;13.456;2023-04-03T02:46:04;1.10;64.10
70079;DHT22;57451;52.496;13.456;2023-04-03T02:48:32;1.10;64.10
70079;DHT22;57451;52.496;13.456;2023-04-03T02:50:59;1.10;64.50
70079;DHT22;57451;52.496;13.456;2023-04-03T02:53:26;1.00;64.30
70079;DHT22;57451;52.496;13.456;2023-04-03T02:55:55;1.00;64.50
70079;DHT22;57451;52.496;13.456;2023-04-03T02:58:22;1.00;64.60
70079;DHT22;57451;52.496;13.456;2023-04-03T03:00:50;0.90;64.90
70079;DHT22;57451;52.496;13.456;2023-04-03T03:03:18;0.90;64.80
70079;DHT22;57451;52.496;13.456;2023-04-03T03:05:45;0.90;64.80
70079;DHT22;57451;52.496;13.456;2023-04-03T03:08:12;0.90;65.00
70079;DHT22;57451;52.496;13.456;2023-04-03T03:10:39;0.90;64.80
70079;DHT22;57451;52.496;13.456;2023-04-03T03:13:08;0.90;65.00
70079;DHT22;57451;52.496;13.456;2023-04-03T03:15:35;0.90;65.10
70079;DHT22;57451;52.496;13.456;2023-04-03T03:18:03;0.90;65.10
70079;DHT22;57451;52.496;13.456;2023-04-03T03:20:30;0.90;65.10
70079;DHT22;57451;52.496;13.456;2023-04-03T03:22:58;0.90;65.20
70079;DHT22;57451;52.496;13.456;2023-04-03T03:25:25;0.80;65.40
70079;DHT22;57451;52.496;13.456;2023-04-03T03:27:52;0.70;65.80
70079;DHT22;57451;52.496;13.456;2023-04-03T03:30:21;0.80;65.40
70079;DHT22;57451;52.496;13.456;2023-04-03T03:32:48;0.70;65.50
70079;DHT22;57451;52.496;13.456;2023-04-03T03:35:15;0.70;65.50
70079;DHT22;57451;52.496;13.456;2023-04-03T03:37:43;0.80;65.50
70079;DHT22;57451;52.496;13.456;2023-04-03T03:40:10;0.70;65.60
70079;DHT22;57451;52.496;13.456;2023-04-03T03:42:40;0.70;65.60
70079;DHT22;57451;52.496;13.456;2023-04-03T03:45:08;0.70;65.60
70079;DHT22;57451;52.496;13.456;2023-04-03T03:47:37;0.60;65.90
70079;DHT22;57451;52.496;13.456;2023-04-03T03:50:06;0.60;65.80
70079;DHT22;57451;52.496;13.456;2023-04-03T03:52:33;0.70;65.60
70079;DHT22;57451;52.496;13.456;2023-04-03T03:55:00;0.60;65.50
70079;DHT22;57451;52.496;13.456;2023-04-03T03:57:28;0.60;65.60
70079;DHT22;57451;52.496;13.456;2023-04-03T03:59:56;0.60;65.90
70079;DHT22;57451;52.496;13.456;2023-04-03T04:02:23;0.50;66.00
70079;DHT22;57451;52.496;13.456;2023-04-03T04:04:53;0.50;66.10
70079;DHT22;57451;52.496;13.456;2023-04-03T04:07:21;0.50;66.20
70079;DHT22;57451;52.496;13.456;2023-04-03T04:09:49;0.50;66.30
70079;DHT22;57451;52.496;13.456;2023-04-03T04:12:16;0.50;66.30
70079;DHT22;57451;52.496;13.456;2023-04-03T04:14:43;0.50;66.20
70079;DHT22;57451;52.496;13.456;2023-04-03T04:17:15;0.50;66.30
70079;DHT22;57451;52.496;13.456;2023-04-03T04:19:42;0.50;66.30
70079;DHT22;57451;52.496;13.456;2023-04-03T04:22:10;0.40;66.40
70079;DHT22;57451;52.496;13.456;2023-04-03T04:24:38;0.40;66.40
70079;DHT22;57451;52.496;13.456;2023-04-03T04:27:07;0.40;66.60
70079;DHT22;57451;52.496;13.456;2023-04-03T04:29:35;0.40;66.50
70079;DHT22;57451;52.496;13.456;2023-04-03T04:32:06;0.40;66.50
70079;DHT22;57451;52.496;13.456;2023-04-03T04:34:34;0.40;66.40
70079;DHT22;57451;52.496;13.456;2023-04-03T04:37:02;0.40;66.70
70079;DHT22;57451;52.496;13.456;2023-04-03T04:39:31;0.40;66.70
70079;DHT22;57451;52.496;13.456;2023-04-03T04:41:59;0.40;66.80
70079;DHT22;57451;52.496;13.456;2023-04-03T04:44:29;0.40;66.50
70079;DHT22;57451;52.496;13.456;2023-04-03T04:46:56;0.40;66.50
70079;DHT22;57451;52.496;13.456;2023-04-03T04:49:23;0.40;66.40
70079;DHT22;57451;52.496;13.456;2023-04-03T04:51:51;0.40;66.70
70079;DHT22;57451;52.496;13.456;2023-04-03T04:54:24;0.30;66.90
70079;DHT22;57451;52.496;13.456;2023-04-03T04:56:53;0.30;67.00
70079;DHT22;57451;52.496;13.456;2023-04-03T04:59:20;0.40;66.70
70079;DHT22;57451;52.496;13.456;2023-04-03T05:01:49;0.30;67.20
70079;DHT22;57451;52.496;13.456;2023-04-03T05:04:17;0.30;67.10
70079;DHT22;57451;52.496;13.456;2023-04-03T05:06:48;0.30;67.10
70079;DHT22;57451;52.496;13.456;2023-04-03T05:09:20;0.30;67.10
70079;DHT22;57451;52.496;13.456;2023-04-03T05:11:49;0.30;67.50
70079;DHT22;57451;52.496;13.456;2023-04-03T05:14:20;0.30;67.50
70079;DHT22;57451;52.496;13.456;2023-04-03T05:16:47;0.30;67.30
70079;DHT22;57451;52.496;13.456;2023-04-03T05:19:18;0.30;67.40
70079;DHT22;57451;52.496;13.456;2023-04-03T05:21:46;0.30;67.20
70079;DHT22;57451;52.496;13.456;2023-04-03T05:24:15;0.40;67.30
70079;DHT22;57451;52.496;13.456;2023-04-03T05:26:44;0.40;67.40
70079;DHT22;57451;52.496;13.456;2023-04-03T05:29:12;0.30;67.60
70079;DHT22;57451;52.496;13.456;2023-04-03T05:31:41;0.30;67.70
70079;DHT22;57451;52.496;13.456;2023-04-03T05:34:10;0.30;68.00
70079;DHT22;57451;52.496;13.456;2023-04-03T05:36:39;0.30;68.00
70079;DHT22;57451;52.496;13.456;2023-04-03T05:39:08;0.40;67.90
70079;DHT22;57451;52.496;13.456;2023-04-03T05:41:39;0.40;67.60
70079;DHT22;57451;52.496;13.456;2023-04-03T05:44:06;0.40;67.90
70079;DHT22;57451;52.496;13.456;2023-04-03T05:46:33;0.40;67.80
70079;DHT22;57451;52.496;13.456;2023-04-03T05:49:05;0.50;68.00
70079;DHT22;57451;52.496;13.456;2023-04-03T05:51:36;0.50;68.00
70079;DHT22;57451;52.496;13.456;2023-04-03T05:54:23;0.50;67.80
70079;DHT22;57451;52.496;13.456;2023-04-03T05:56:55;0.60;67.90
70079;DHT22;57451;52.496;13.456;2023-04-03T05:59:23;0.60;67.70
70079;DHT22;57451;52.496;13.456;2023-04-03T06:01:53;0.70;67.90
70079;DHT22;57451;52.496;13.456;2023-04-03T06:04:22;0.70;67.60
70079;DHT22;57451;52.496;13.456;2023-04-03T06:06:51;0.80;67.50
70079;DHT22;57451;52.496;13.456;2023-04-03T06:09:20;0.90;67.60
70079;DHT22;57451;52.496;13.456;2023-04-03T06:11:48;0.90;67.80
70079;DHT22;57451;52.496;13.456;2023-04-03T06:14:16;0.90;67.80
70079;DHT22;57451;52.496;13.456;2023-04-03T06:16:44;1.00;67.60
70079;DHT22;57451;52.496;13.456;2023-04-03T06:19:12;1.10;67.40
70079;DHT22;57451;52.496;13.456;2023-04-03T06:21:46;1.20;68.00
70079;DHT22;57451;52.496;13.456;2023-04-03T06:24:16;1.20;69.10
70079;DHT22;57451;52.496;13.456;2023-04-03T06:26:43;1.30;69.20
70079;DHT22;57451;52.496;13.456;2023-04-03T06:29:11;1.30;67.70
70079;DHT22;57451;52.496;13.456;2023-04-03T06:31:38;1.40;67.00
70079;DHT22;57451;52.496;13.456;2023-04-03T06:34:05;1.40;66.70
70079;DHT22;57451;52.496;13.456;2023-04-03T06:36:35;1.50;66.20
70079;DHT22;57451;52.496;13.456;2023-04-03T06:39:04;1.60;65.90
70079;DHT22;57451;52.496;13.456;2023-04-03T06:41:32;1.60;65.50
70079;DHT22;57451;52.496;13.456;2023-04-03T06:44:02;1.70;64.90
70079;DHT22;57451;52.496;13.456;2023-04-03T06:46:30;1.70;64.10
70079;DHT22;57451;52.496;13.456;2023-04-03T06:48:57;1.80;64.10
70079;DHT22;57451;52.496;13.456;2023-04-03T06:51:26;1.90;63.70
70079;DHT22;57451;52.496;13.456;2023-04-03T06:53:57;2.00;64.10
70079;DHT22;57451;52.496;13.456;2023-04-03T06:56:26;2.10;63.40
70079;DHT22;57451;52.496;13.456;2023-04-03T06:58:53;2.10;62.60
70079;DHT22;57451;52.496;13.456;2023-04-03T07:01:21;2.20;63.00
70079;DHT22;57451;52.496;13.456;2023-04-03T07:03:49;2.30;62.80
70079;DHT22;57451;52.496;13.456;2023-04-03T07:06:17;2.40;62.10
70079;DHT22;57451;52.496;13.456;2023-04-03T07:08:46;2.50;62.00
70079;DHT22;57451;52.496;13.456;2023-04-03T07:11:15;2.50;61.20
70079;DHT22;57451;52.496;13.456;2023-04-03T07:13:44;2.60;60.90
70079;DHT22;57451;52.496;13.456;2023-04-03T07:16:12;2.70;59.60
70079;DHT22;57451;52.496;13.456;2023-04-03T07:18:39;2.80;58.40
70079;DHT22;57451;52.496;13.456;2023-04-03T07:21:07;2.80;59.30
70079;DHT22;57451;52.496;13.456;2023-04-03T07:23:34;3.00;59.80
70079;DHT22;57451;52.496;13.456;2023-04-03T07:26:02;3.00;58.30
70079;DHT22;57451;52.496;13.456;2023-04-03T07:28:29;3.00;57.70
70079;DHT22;57451;52.496;13.456;2023-04-03T07:31:02;3.10;56.20
70079;DHT22;57451;52.496;13.456;2023-04-03T07:33:30;3.20;58.20
70079;DHT22;57451;52.496;13.456;2023-04-03T07:35:58;3.30;57.10
70079;DHT22;57451;52.496;13.456;2023-04-03T07:38:25;3.50;57.20
70079;DHT22;57451;52.496;13.456;2023-04-03T07:40:53;3.50;55.90
70079;DHT22;57451;52.496;13.456;2023-04-03T07:43:21;3.60;55.10
70079;DHT22;57451;52.496;13.456;2023-04-03T07:45:49;3.70;55.40
70079;DHT22;57451;52.496;13.456;2023-04-03T07:48:20;3.80;54.70
70079;DHT22;57451;52.496;13.456;2023-04-03T07:50:48;3.90;54.80
70079;DHT22;57451;52.496;13.456;2023-04-03T07:53:16;4.10;54.30
70079;DHT22;57451;52.496;13.456;2023-04-03T07:55:46;4.20;51.30
70079;DHT22;57451;52.496;13.456;2023-04-03T07:58:15;4.10;51.60
70079;DHT22;57451;52.496;13.456;2023-04-03T08:00:45;4.20;53.20
70079;DHT22;57451;52.496;13.456;2023-04-03T08:03:13;4.30;51.30
70079;DHT22;57451;52.496;13.456;2023-04-03T08:05:43;4.40;51.50
70079;DHT22;57451;52.496;13.456;2023-04-03T08:08:11;4.50;51.80
70079;DHT22;57451;52.496;13.456;2023-04-03T08:10:39;4.50;52.60
70079;DHT22;57451;52.496;13.456;2023-04-03T08:13:07;4.60;52.60
70079;DHT22;57451;52.496;13.456;2023-04-03T08:15:35;4.60;53.20
70079;DHT22;57451;52.496;13.456;2023-04-03T08:18:04;4.70;52.70
70079;DHT22;57451;52.496;13.456;2023-04-03T08:20:31;4.70;51.60
70079;DHT22;57451;52.496;13.456;2023-04-03T08:23:00;4.60;52.60
70079;DHT22;57451;52.496;13.456;2023-04-03T08:25:27;4.60;51.80
70079;DHT22;57451;52.496;13.456;2023-04-03T08:27:56;4.60;52.60
70079;DHT22;57451;52.496;13.456;2023-04-03T08:30:26;4.70;51.80
70079;DHT22;57451;52.496;13.456;2023-04-03T08:32:56;4.70;50.40
70079;DHT22;57451;52.496;13.456;2023-04-03T08:35:23;4.60;48.80
70079;DHT22;57451;52.496;13.456;2023-04-03T08:37:50;4.60;49.70
70079;DHT22;57451;52.496;13.456;2023-04-03T08:40:19;4.60;49.10
70079;DHT22;57451;52.496;13.456;2023-04-03T08:42:54;4.60;50.10
70079;DHT22;57451;52.496;13.456;2023-04-03T08:45:30;4.70;49.80
70079;DHT22;57451;52.496;13.456;2023-04-03T08:48:05;4.70;48.10
70079;DHT22;57451;52.496;13.456;2023-04-03T08:50:38;4.70;47.50
70079;DHT22;57451;52.496;13.456;2023-04-03T08:53:12;4.60;46.60
70079;DHT22;57451;52.496;13.456;2023-04-03T08:55:44;4.50;47.80
70079;DHT22;57451;52.496;13.456;2023-04-03T08:58:15;4.40;49.20
70079;DHT22;57451;52.496;13.456;2023-04-03T09:00:46;4.40;51.90
70079;DHT22;57451;52.496;13.456;2023-04-03T09:03:15;4.40;51.90
70079;DHT22;57451;52.496;13.456;2023-04-03T09:05:48;4.60;51.60
70079;DHT22;57451;52.496;13.456;2023-04-03T09:08:22;4.60;50.00
70079;DHT22;57451;52.496;13.456;2023-04-03T09:10:59;4.70;49.90
70079;DHT22;57451;52.496;13.456;2023-04-03T09:13:36;4.60;49.10
70079;DHT22;57451;52.496;13.456;2023-04-03T09:16:16;4.70;49.60
70079;DHT22;57451;52.496;13.456;2023-04-03T09:18:51;4.80;49.90
70079;DHT22;57451;52.496;13.456;2023-04-03T09:21:25;4.90;49.90
70079;DHT22;57451;52.496;13.456;2023-04-03T09:23:59;4.90;46.80
70079;DHT22;57451;52.496;13.456;2023-04-03T09:26:33;4.90;46.90
70079;DHT22;57451;52.496;13.456;2023-04-03T09:29:05;5.10;47.00
70079;DHT22;57451;52.496;13.456;2023-04-03T09:31:36;5.20;46.80
70079;DHT22;57451;52.496;13.456;2023-04-03T09:34:09;5.30;46.30
70079;DHT22;57451;52.496;13.456;2023-04-03T09:36:42;5.40;46.40
70079;DHT22;57451;52.496;13.456;2023-04-03T09:39:13;5.60;46.90
70079;DHT22;57451;52.496;13.456;2023-04-03T09:41:55;5.60;45.90
70079;DHT22;57451;52.496;13.456;2023-04-03T09:44:24;5.70;46.20
70079;DHT22;57451;52.496;13.456;2023-04-03T09:46:51;5.70;45.00
70079;DHT22;57451;52.496;13.456;2023-04-03T09:49:19;5.70;45.20
70079;DHT22;57451;52.496;13.456;2023-04-03T09:51:47;5.80;46.00
70079;DHT22;57451;52.496;13.456;2023-04-03T09:54:35;5.80;45.00
70079;DHT22;57451;52.496;13.456;2023-04-03T09:57:11;5.90;46.90
70079;DHT22;57451;52.496;13.456;2023-04-03T09:59:44;6.00;46.20
70079;DHT22;57451;52.496;13.456;2023-04-03T10:02:28;6.00;46.80
70079;DHT22;57451;52.496;13.456;2023-04-03T10:04:58;6.20;45.50
70079;DHT22;57451;52.496;13.456;2023-04-03T10:07:34;6.20;45.90
70079;DHT22;57451;52.496;13.456;2023-04-03T10:10:16;6.10;45.80
70079;DHT22;57451;52.496;13.456;2023-04-03T10:12:46;6.10;46.20
70079;DHT22;57451;52.496;13.456;2023-04-03T10:15:15;6.10;44.60
70079;DHT22;57451;52.496;13.456;2023-04-03T10:17:50;6.20;45.50
70079;DHT22;57451;52.496;13.456;2023-04-03T10:20:30;6.30;45.90
70079;DHT22;57451;52.496;13.456;2023-04-03T10:23:13;6.30;45.40
70079;DHT22;57451;52.496;13.456;2023-04-03T10:25:45;6.40;45.50
70079;DHT22;57451;52.496;13.456;2023-04-03T10:28:23;6.40;44.90
70079;DHT22;57451;52.496;13.456;2023-04-03T10:30:58;6.40;44.10
70079;DHT22;57451;52.496;13.456;2023-04-03T10:33:42;6.60;45.70
70079;DHT22;57451;52.496;13.456;2023-04-03T10:36:20;6.70;42.60
70079;DHT22;57451;52.496;13.456;2023-04-03T10:38:57;6.80;44.10
70079;DHT22;57451;52.496;13.456;2023-04-03T10:41:33;6.70;45.20
70079;DHT22;57451;52.496;13.456;2023-04-03T10:44:13;6.80;44.50
70079;DHT22;57451;52.496;13.456;2023-04-03T10:46:43;6.80;43.80
70079;DHT22;57451;52.496;13.456;2023-04-03T10:49:25;6.60;43.90
70079;DHT22;57451;52.496;13.456;2023-04-03T10:51:59;6.50;44.30
70079;DHT22;57451;52.496;13.456;2023-04-03T10:54:36;6.60;44.30
70079;DHT22;57451;52.496;13.456;2023-04-03T10:57:08;6.60;44.50
70079;DHT22;57451;52.496;13.456;2023-04-03T10:59:44;6.40;44.70
70079;DHT22;57451;52.496;13.456;2023-04-03T11:02:17;6.50;44.80
70079;DHT22;57451;52.496;13.456;2023-04-03T11:04:50;6.50;44.80
70079;DHT22;57451;52.496;13.456;2023-04-03T11:07:20;6.50;45.00
70079;DHT22;57451;52.496;13.456;2023-04-03T11:09:52;6.50;44.70
70079;DHT22;57451;52.496;13.456;2023-04-03T11:12:24;6.60;44.90
70079;DHT22;57451;52.496;13.456;2023-04-03T11:14:56;6.50;44.80
70079;DHT22;57451;52.496;13.456;2023-04-03T11:17:30;6.40;44.90
70079;DHT22;57451;52.496;13.456;2023-04-03T11:20:05;6.40;44.80
70079;DHT22;57451;52.496;13.456;2023-04-03T11:22:38;6.30;44.80
70079;DHT22;57451;52.496;13.456;2023-04-03T11:25:18;6.30;45.20
70079;DHT22;57451;52.496;13.456;2023-04-03T11:27:53;6.20;46.00
70079;DHT22;57451;52.496;13.456;2023-04-03T11:30:25;6.30;45.70
70079;DHT22;57451;52.496;13.456;2023-04-03T11:33:21;6.20;45.30
70079;DHT22;57451;52.496;13.456;2023-04-03T11:35:52;6.20;45.20
70079;DHT22;57451;52.496;13.456;2023-04-03T11:38:23;6.20;45.80
70079;DHT22;57451;52.496;13.456;2023-04-03T11:40:54;6.30;45.60
70079;DHT22;57451;52.496;13.456;2023-04-03T11:43:24;6.40;45.80
70079;DHT22;57451;52.496;13.456;2023-04-03T11:45:56;6.50;45.90
70079;DHT22;57451;52.496;13.456;2023-04-03T11:48:50;6.60;45.80
70079;DHT22;57451;52.496;13.456;2023-04-03T11:51:41;6.60;45.50
70079;DHT22;57451;52.496;13.456;2023-04-03T11:54:42;6.50;46.00
70079;DHT22;57451;52.496;13.456;2023-04-03T12:00:54;6.50;47.10
70079;DHT22;57451;52.496;13.456;2023-04-03T12:03:57;6.60;46.60
70079;DHT22;57451;52.496;13.456;2023-04-03T12:10:02;6.60;46.50
70079;DHT22;57451;52.496;13.456;2023-04-03T12:12:33;6.50;45.60
70079;DHT22;57451;52.496;13.456;2023-04-03T12:18:55;6.50;46.60
70079;DHT22;57451;52.496;13.456;2023-04-03T12:21:24;6.50;45.30
70079;DHT22;57451;52.496;13.456;2023-04-03T12:24:27;6.40;45.80
70079;DHT22;57451;52.496;13.456;2023-04-03T12:27:03;6.50;46.50
70079;DHT22;57451;52.496;13.456;2023-04-03T12:29:36;6.60;46.10
70079;DHT22;57451;52.496;13.456;2023-04-03T12:32:15;6.70;46.40
70079;DHT22;57451;52.496;13.456;2023-04-03T12:34:56;6.80;45.10
70079;DHT22;57451;52.496;13.456;2023-04-03T12:37:42;6.80;44.10
70079;DHT22;57451;52.496;13.456;2023-04-03T12:40:24;6.80;45.10
70079;DHT22;57451;52.496;13.456;2023-04-03T12:43:05;6.90;45.80
70079;DHT22;57451;52.496;13.456;2023-04-03T12:45:41;7.00;45.70
70079;DHT22;57451;52.496;13.456;2023-04-03T12:48:14;7.10;44.20
70079;DHT22;57451;52.496;13.456;2023-04-03T12:50:45;7.10;43.00
70079;DHT22;57451;52.496;13.456;2023-04-03T12:53:15;7.00;44.10
70079;DHT22;57451;52.496;13.456;2023-04-03T12:55:45;7.10;43.80
70079;DHT22;57451;52.496;13.456;2023-04-03T12:58:14;7.20;43.10
70079;DHT22;57451;52.496;13.456;2023-04-03T13:00:42;7.10;44.40
70079;DHT22;57451;52.496;13.456;2023-04-03T13:03:24;7.20;44.30
70079;DHT22;57451;52.496;13.456;2023-04-03T13:05:55;7.30;44.60
70079;DHT22;57451;52.496;13.456;2023-04-03T13:08:24;7.30;42.50
70079;DHT22;57451;52.496;13.456;2023-04-03T13:10:56;7.00;43.00
70079;DHT22;57451;52.496;13.456;2023-04-03T13:13:25;6.90;43.20
70079;DHT22;57451;52.496;13.456;2023-04-03T13:15:54;7.00;44.10
70079;DHT22;57451;52.496;13.456;2023-04-03T13:18:24;7.10;44.60
70079;DHT22;57451;52.496;13.456;2023-04-03T13:20:52;7.20;44.60
70079;DHT22;57451;52.496;13.456;2023-04-03T13:23:20;7.30;45.00
70079;DHT22;57451;52.496;13.456;2023-04-03T13:25:48;7.20;44.80
70079;DHT22;57451;52.496;13.456;2023-04-03T13:28:20;7.20;43.90
70079;DHT22;57451;52.496;13.456;2023-04-03T13:30:59;7.20;44.40
70079;DHT22;57451;52.496;13.456;2023-04-03T13:33:30;7.20;44.70
70079;DHT22;57451;52.496;13.456;2023-04-03T13:36:03;7.20;44.40
70079;DHT22;57451;52.496;13.456;2023-04-03T13:38:32;7.20;44.50
70079;DHT22;57451;52.496;13.456;2023-04-03T13:41:03;7.10;44.90
70079;DHT22;57451;52.496;13.456;2023-04-03T13:43:35;7.10;44.70
70079;DHT22;57451;52.496;13.456;2023-04-03T13:46:20;7.00;44.30
70079;DHT22;57451;52.496;13.456;2023-04-03T13:48:50;6.90;45.00
70079;DHT22;57451;52.496;13.456;2023-04-03T13:51:21;6.80;44.40
70079;DHT22;57451;52.496;13.456;2023-04-03T13:53:51;6.60;44.90
70079;DHT22;57451;52.496;13.456;2023-04-03T13:56:24;6.60;45.10
70079;DHT22;57451;52.496;13.456;2023-04-03T13:59:03;6.60;45.50
70079;DHT22;57451;52.496;13.456;2023-04-03T14:01:41;6.60;45.30
70079;DHT22;57451;52.496;13.456;2023-04-03T14:04:17;6.50;46.40
70079;DHT22;57451;52.496;13.456;2023-04-03T14:06:46;6.50;46.70
70079;DHT22;57451;52.496;13.456;2023-04-03T14:09:14;6.60;46.30
70079;DHT22;57451;52.496;13.456;2023-04-03T14:11:42;6.60;46.90
70079;DHT22;57451;52.496;13.456;2023-04-03T14:14:15;6.60;47.00
70079;DHT22;57451;52.496;13.456;2023-04-03T14:16:45;6.60;46.40
70079;DHT22;57451;52.496;13.456;2023-04-03T14:19:19;6.70;46.20
70079;DHT22;57451;52.496;13.456;2023-04-03T14:21:48;6.80;45.80
70079;DHT22;57451;52.496;13.456;2023-04-03T14:24:15;6.90;45.60
70079;DHT22;57451;52.496;13.456;2023-04-03T14:26:43;6.90;45.80
70079;DHT22;57451;52.496;13.456;2023-04-03T14:29:13;6.90;45.40
70079;DHT22;57451;52.496;13.456;2023-04-03T14:31:43;7.00;46.60
70079;DHT22;57451;52.496;13.456;2023-04-03T14:34:11;7.20;45.50
70079;DHT22;57451;52.496;13.456;2023-04-03T14:36:39;7.50;46.90
70079;DHT22;57451;52.496;13.456;2023-04-03T14:39:11;7.80;45.40
70079;DHT22;57451;52.496;13.456;2023-04-03T14:41:43;8.00;45.60
70079;DHT22;57451;52.496;13.456;2023-04-03T14:44:10;8.20;44.20
70079;DHT22;57451;52.496;13.456;2023-04-03T14:46:43;8.40;44.20
70079;DHT22;57451;52.496;13.456;2023-04-03T14:49:25;8.40;43.90
70079;DHT22;57451;52.496;13.456;2023-04-03T14:51:53;8.50;44.30
70079;DHT22;57451;52.496;13.456;2023-04-03T14:54:22;8.60;43.80
70079;DHT22;57451;52.496;13.456;2023-04-03T14:56:55;8.70;43.60
70079;DHT22;57451;52.496;13.456;2023-04-03T14:59:23;8.50;43.70
70079;DHT22;57451;52.496;13.456;2023-04-03T15:01:52;8.50;43.80
70079;DHT22;57451;52.496;13.456;2023-04-03T15:04:20;8.30;43.70
70079;DHT22;57451;52.496;13.456;2023-04-03T15:06:48;8.20;43.80
70079;DHT22;57451;52.496;13.456;2023-04-03T15:09:20;8.00;44.40
70079;DHT22;57451;52.496;13.456;2023-04-03T15:11:49;7.80;44.90
70079;DHT22;57451;52.496;13.456;2023-04-03T15:14:16;7.80;45.40
70079;DHT22;57451;52.496;13.456;2023-04-03T15:17:04;7.70;45.60
70079;DHT22;57451;52.496;13.456;2023-04-03T15:19:36;7.60;45.80
70079;DHT22;57451;52.496;13.456;2023-04-03T15:22:04;7.60;45.70
70079;DHT22;57451;52.496;13.456;2023-04-03T15:24:31;7.50;45.80
70079;DHT22;57451;52.496;13.456;2023-04-03T15:27:00;7.30;46.10
70079;DHT22;57451;52.496;13.456;2023-04-03T15:29:27;7.10;46.90
70079;DHT22;57451;52.496;13.456;2023-04-03T15:31:55;7.00;47.90
70079;DHT22;57451;52.496;13.456;2023-04-03T15:34:24;6.80;47.70
70079;DHT22;57451;52.496;13.456;2023-04-03T15:36:51;6.70;48.00
70079;DHT22;57451;52.496;13.456;2023-04-03T15:39:22;6.70;47.80
70079;DHT22;57451;52.496;13.456;2023-04-03T15:41:50;6.70;48.20
70079;DHT22;57451;52.496;13.456;2023-04-03T15:44:19;6.70;48.40
70079;DHT22;57451;52.496;13.456;2023-04-03T15:46:47;6.70;48.60
70079;DHT22;57451;52.496;13.456;2023-04-03T15:49:16;6.70;48.50
70079;DHT22;57451;52.496;13.456;2023-04-03T15:51:45;6.70;48.40
70079;DHT22;57451;52.496;13.456;2023-04-03T15:54:12;6.50;48.70
70079;DHT22;57451;52.496;13.456;2023-04-03T15:56:40;6.50;48.30
70079;DHT22;57451;52.496;13.456;2023-04-03T15:59:07;6.30;48.30
70079;DHT22;57451;52.496;13.456;2023-04-03T16:01:34;6.20;48.90
70079;DHT22;57451;52.496;13.456;2023-04-03T16:04:03;6.20;48.70